This is the latest recevied weather packets stored in our database for station/object YO3LAW-13. If no packets are shown the sender has not sent any weather packets the latest 1 day(s).
| Time | Temp. | Humidity | Pressure | Rain* | Wind** | Luminosity | Snow |
|---|---|---|---|---|---|---|---|
| 1778067347 | 26.67° C | 34% | 1004.6 hPa | 0 mm | - | - | - |
| 1778065547 | 26.11° C | 35% | 1004.7 hPa | 0 mm | - | - | - |
| 1778064947 | 26.11° C | 35% | 1004.6 hPa | 0 mm | - | - | - |
| 1778064347 | 25.56° C | 35% | 1004.5 hPa | 0 mm | - | - | - |
| 1778062547 | 25° C | 37% | 1004.7 hPa | 0 mm | - | - | - |
| 1778061347 | 25.56° C | 35% | 1004.8 hPa | 0 mm | - | - | - |
| 1778059547 | 24.44° C | 36% | 1005 hPa | 0 mm | - | - | - |
| 1778058947 | 24.44° C | 35% | 1005.1 hPa | 0 mm | - | - | - |
| 1778058347 | 24.44° C | 35% | 1005.1 hPa | 0 mm | - | - | - |
| 1778057747 | 24.44° C | 37% | 1004.8 hPa | 0 mm | - | - | - |
| 1778057147 | 23.89° C | 35% | 1005 hPa | 0 mm | - | - | - |
| 1778055947 | 23.33° C | 37% | 1005 hPa | 0 mm | - | - | - |
| 1778055347 | 23.33° C | 36% | 1005.1 hPa | 0 mm | - | - | - |
| 1778053547 | 21.67° C | 44% | 1005.1 hPa | 0 mm | - | - | - |
| 1778052947 | 21.11° C | 44% | 1005.1 hPa | 0 mm | - | - | - |
| 1778052347 | 21.11° C | 45% | 1005 hPa | 0 mm | - | - | - |
| 1778051747 | 20.56° C | 48% | 1004.9 hPa | 0 mm | - | - | - |
| 1778051147 | 20° C | 50% | 1005 hPa | 0 mm | - | - | - |
| 1778050547 | 19.44° C | 52% | 1005.2 hPa | 0 mm | - | - | - |
| 1778049947 | 18.89° C | 51% | 1005 hPa | 0 mm | - | - | - |
| 1778049347 | 17.78° C | 56% | 1004.9 hPa | 0 mm | - | - | - |
| 1778048747 | 18.33° C | 53% | 1005 hPa | 0 mm | - | - | - |
| 1778048147 | 17.78° C | 53% | 1005 hPa | 0 mm | - | - | - |
| 1778047547 | 16.67° C | 54% | 1005 hPa | 0 mm | - | - | - |
| 1778046947 | 16.11° C | 56% | 1005.2 hPa | 0 mm | - | - | - |
* Rain latest hour (hover to see other rain measurements)
** Current wind speed in m/s (hover to see current wind gust speed)